Time;durP1;ratioP1;P1;durP2;ratioP2;P2;SDS_P1;SDS_P2;PMS_P1;PMS_P2;Temp;Humidity;BMP_temperature;BMP_pressure;BME280_temperature;BME280_humidity;BME280_pressure;Samples;Min_cycle;Max_cycle;Signal;HPM_P1;HPM_P2
2023/06/15 00:01:51;;;;;;;;;;;25.90;38.00;;;;;;5054222;28;19920;-55
2023/06/15 00:04:17;;;;;;;;;;;25.90;38.00;;;;;;5051270;28;19924;-54
2023/06/15 00:06:43;;;;;;;;;;;25.90;38.20;;;;;;5054954;28;19959;-55
2023/06/15 00:09:08;;;;;;;;;;;25.80;38.10;;;;;;5053223;28;19913;-54
2023/06/15 00:11:34;;;;;;;;;;;25.80;38.10;;;;;;5065787;28;19940;-55
2023/06/15 00:13:59;;;;;;;;;;;25.80;38.20;;;;;;5084695;28;19916;-55
2023/06/15 00:16:30;;;;;;;;;;;25.70;38.30;;;;;;5051146;28;19924;-55
2023/06/15 00:19:01;;;;;;;;;;;25.70;38.30;;;;;;5057873;28;19916;-55
2023/06/15 00:21:27;;;;;;;;;;;25.70;38.40;;;;;;5049924;28;19917;-55
2023/06/15 00:23:52;;;;;;;;;;;25.70;38.60;;;;;;5051558;28;19974;-55
2023/06/15 00:26:18;;;;;;;;;;;25.70;38.50;;;;;;5049282;28;19948;-55
2023/06/15 00:28:43;;;;;;;;;;;25.70;38.60;;;;;;5066141;28;20392;-55
2023/06/15 00:31:09;;;;;;;;;;;25.70;38.60;;;;;;5081399;28;20266;-55
2023/06/15 00:33:34;;;;;;;;;;;25.70;38.60;;;;;;5051880;28;19935;-55
2023/06/15 00:36:00;;;;;;;;;;;25.70;38.60;;;;;;5050757;28;19928;-54
2023/06/15 00:38:25;;;;;;;;;;;25.70;38.60;;;;;;5049170;28;20364;-55
2023/06/15 00:40:51;;;;;;;;;;;25.70;38.70;;;;;;5050299;28;19913;-55
2023/06/15 00:43:17;;;;;;;;;;;25.70;38.70;;;;;;5052713;28;20035;-55
2023/06/15 00:45:42;;;;;;;;;;;25.70;38.70;;;;;;5049721;28;19935;-55
2023/06/15 00:48:08;;;;;;;;;;;25.70;38.90;;;;;;5051566;28;19912;-55
2023/06/15 00:50:33;;;;;;;;;;;25.60;39.00;;;;;;5049750;28;19927;-55
2023/06/15 00:53:00;;;;;;;;;;;25.60;39.10;;;;;;5051014;28;19927;-55
2023/06/15 00:55:26;;;;;;;;;;;25.60;39.10;;;;;;5047364;28;19917;-54
2023/06/15 00:57:52;;;;;;;;;;;25.60;39.30;;;;;;5050329;28;19917;-55
2023/06/15 01:00:18;;;;;;;;;;;25.60;39.30;;;;;;5052817;28;20095;-55
2023/06/15 01:02:44;;;;;;;;;;;25.50;39.40;;;;;;5049191;28;20003;-55
2023/06/15 01:05:10;;;;;;;;;;;25.40;39.30;;;;;;5050011;28;19916;-54
2023/06/15 01:07:36;;;;;;;;;;;25.50;39.40;;;;;;5051057;28;19978;-55
2023/06/15 01:10:01;;;;;;;;;;;25.50;39.60;;;;;;5080621;28;19956;-54
2023/06/15 01:12:28;;;;;;;;;;;25.40;39.50;;;;;;5048469;28;19955;-55
2023/06/15 01:14:54;;;;;;;;;;;25.40;39.60;;;;;;5048486;28;19928;-55
2023/06/15 01:17:23;;;;;;;;;;;25.50;39.50;;;;;;5058384;28;19930;-54
2023/06/15 01:20:04;;;;;;;;;;;25.40;39.50;;;;;;5116642;27;19912;-55
2023/06/15 01:22:55;;;;;;;;;;;25.40;39.50;;;;;;5096708;28;19915;-55
2023/06/15 01:25:36;;;;;;;;;;;25.40;39.60;;;;;;5063676;28;19920;-55
2023/06/15 01:28:02;;;;;;;;;;;25.40;39.50;;;;;;5052126;28;20003;-55
2023/06/15 01:30:28;;;;;;;;;;;25.40;39.50;;;;;;5052035;28;19995;-54
2023/06/15 01:32:53;;;;;;;;;;;25.40;39.50;;;;;;5069534;28;20019;-55
2023/06/15 01:35:19;;;;;;;;;;;25.40;39.50;;;;;;5078499;28;19912;-55
2023/06/15 01:37:44;;;;;;;;;;;25.40;39.50;;;;;;5070629;28;19913;-55
2023/06/15 01:40:10;;;;;;;;;;;25.40;39.50;;;;;;5051157;28;19915;-55
2023/06/15 01:42:35;;;;;;;;;;;25.40;39.50;;;;;;5051073;28;19955;-55
2023/06/15 01:45:01;;;;;;;;;;;25.40;39.50;;;;;;5047271;28;19977;-55
2023/06/15 01:47:26;;;;;;;;;;;25.40;39.50;;;;;;5070369;28;20016;-55
2023/06/15 01:49:52;;;;;;;;;;;25.40;39.50;;;;;;5104149;28;20349;-55
2023/06/15 01:52:17;;;;;;;;;;;25.40;39.50;;;;;;5104519;28;19950;-55
2023/06/15 01:54:43;;;;;;;;;;;25.40;39.50;;;;;;5050918;28;19931;-54
2023/06/15 01:57:08;;;;;;;;;;;25.40;39.30;;;;;;5049975;28;19917;-55
2023/06/15 01:59:34;;;;;;;;;;;25.40;39.40;;;;;;5050558;28;19920;-55
2023/06/15 02:01:59;;;;;;;;;;;25.30;39.30;;;;;;5049561;28;19939;-54
2023/06/15 02:04:24;;;;;;;;;;;25.40;39.40;;;;;;5052497;28;20011;-55
2023/06/15 02:06:51;;;;;;;;;;;25.40;39.30;;;;;;5054316;28;20377;-54
2023/06/15 02:09:16;;;;;;;;;;;25.40;39.40;;;;;;5056570;28;19913;-55
2023/06/15 02:11:43;;;;;;;;;;;25.30;39.30;;;;;;5049418;28;19920;-54
2023/06/15 02:14:09;;;;;;;;;;;25.40;39.30;;;;;;5049813;28;20273;-55
2023/06/15 02:16:35;;;;;;;;;;;25.40;39.30;;;;;;5049081;28;19927;-55
2023/06/15 02:19:03;;;;;;;;;;;25.40;39.30;;;;;;5048886;28;19958;-54
2023/06/15 02:21:28;;;;;;;;;;;25.40;39.40;;;;;;5049102;28;19916;-54
2023/06/15 02:23:54;;;;;;;;;;;25.30;39.30;;;;;;5049559;28;19986;-55
2023/06/15 02:26:20;;;;;;;;;;;25.40;39.30;;;;;;5041379;28;19959;-55
2023/06/15 02:28:45;;;;;;;;;;;25.30;39.30;;;;;;5048658;28;19924;-54
2023/06/15 02:31:11;;;;;;;;;;;25.40;39.40;;;;;;5048496;28;19913;-54
2023/06/15 02:33:37;;;;;;;;;;;25.30;39.30;;;;;;5051706;28;19966;-55
2023/06/15 02:36:03;;;;;;;;;;;25.30;39.30;;;;;;5047668;28;19942;-55
2023/06/15 02:38:28;;;;;;;;;;;25.30;39.30;;;;;;5050268;28;20032;-55
2023/06/15 02:40:54;;;;;;;;;;;25.30;39.30;;;;;;5053105;28;19920;-55
2023/06/15 02:43:19;;;;;;;;;;;25.30;39.30;;;;;;5048023;28;21916;-55
2023/06/15 02:45:45;;;;;;;;;;;25.30;39.30;;;;;;5050815;28;19913;-55
2023/06/15 02:48:10;;;;;;;;;;;25.30;39.30;;;;;;5052297;28;20288;-54
2023/06/15 02:50:36;;;;;;;;;;;25.30;39.30;;;;;;5051724;28;20304;-54
2023/06/15 02:53:01;;;;;;;;;;;25.30;39.30;;;;;;5053886;28;19912;-54
2023/06/15 02:55:26;;;;;;;;;;;25.30;39.40;;;;;;5053917;28;19924;-55
2023/06/15 02:57:52;;;;;;;;;;;25.30;39.40;;;;;;5069723;28;20028;-54
2023/06/15 03:00:18;;;;;;;;;;;25.30;39.40;;;;;;5063044;28;19936;-55
2023/06/15 03:02:44;;;;;;;;;;;25.20;39.30;;;;;;5053003;28;20069;-55
2023/06/15 03:05:10;;;;;;;;;;;25.30;39.40;;;;;;5051536;28;19921;-55
2023/06/15 03:07:35;;;;;;;;;;;25.20;39.40;;;;;;5052617;28;20478;-55
2023/06/15 03:10:01;;;;;;;;;;;25.10;39.30;;;;;;5052433;28;19913;-54
2023/06/15 03:12:26;;;;;;;;;;;25.20;39.30;;;;;;5052754;28;20058;-54
2023/06/15 03:14:52;;;;;;;;;;;25.20;39.50;;;;;;5053179;28;19920;-55
2023/06/15 03:17:18;;;;;;;;;;;25.10;39.30;;;;;;5051641;28;19920;-55
2023/06/15 03:19:44;;;;;;;;;;;25.20;39.40;;;;;;5062483;28;19912;-55
2023/06/15 03:22:09;;;;;;;;;;;25.10;39.40;;;;;;5074861;28;19916;-55
2023/06/15 03:24:35;;;;;;;;;;;25.10;39.50;;;;;;5060623;28;19913;-55
2023/06/15 03:27:01;;;;;;;;;;;25.10;39.50;;;;;;5054389;28;20376;-55
2023/06/15 03:29:29;;;;;;;;;;;25.10;39.30;;;;;;5054047;28;19909;-55
2023/06/15 03:31:55;;;;;;;;;;;25.10;39.30;;;;;;5059102;28;19955;-55
2023/06/15 03:34:20;;;;;;;;;;;25.10;39.40;;;;;;5060489;28;20380;-54
2023/06/15 03:36:46;;;;;;;;;;;25.10;39.30;;;;;;5076883;28;19908;-55
2023/06/15 03:39:12;;;;;;;;;;;25.10;39.50;;;;;;5094386;28;19908;-55
2023/06/15 03:41:37;;;;;;;;;;;25.10;39.30;;;;;;5073650;28;20282;-55
2023/06/15 03:44:03;;;;;;;;;;;25.10;39.40;;;;;;5054004;28;19924;-54
2023/06/15 03:46:28;;;;;;;;;;;25.10;39.40;;;;;;5053681;28;19913;-55
2023/06/15 03:48:54;;;;;;;;;;;25.10;39.30;;;;;;5055177;28;19920;-55
2023/06/15 03:51:19;;;;;;;;;;;25.00;39.30;;;;;;5051369;28;19912;-55
2023/06/15 03:53:45;;;;;;;;;;;25.00;39.40;;;;;;5051736;28;19936;-54
2023/06/15 03:56:10;;;;;;;;;;;24.90;39.30;;;;;;5056508;28;19913;-55
2023/06/15 03:58:36;;;;;;;;;;;25.00;39.40;;;;;;5056934;28;19923;-54
2023/06/15 04:01:04;;;;;;;;;;;25.00;39.40;;;;;;5054684;28;20384;-55
2023/06/15 04:03:36;;;;;;;;;;;25.00;39.30;;;;;;5053748;28;19996;-55
2023/06/15 04:06:04;;;;;;;;;;;25.00;39.30;;;;;;5051985;28;19924;-55
2023/06/15 04:08:31;;;;;;;;;;;25.00;39.30;;;;;;5056593;28;19913;-54
2023/06/15 04:10:56;;;;;;;;;;;25.00;39.20;;;;;;5050956;28;19923;-55
2023/06/15 04:13:22;;;;;;;;;;;25.00;39.20;;;;;;5051595;28;20416;-55
2023/06/15 04:15:48;;;;;;;;;;;25.00;39.10;;;;;;5050589;28;19917;-55
2023/06/15 04:18:13;;;;;;;;;;;24.90;39.10;;;;;;5050916;28;19920;-54
2023/06/15 04:20:40;;;;;;;;;;;25.00;39.10;;;;;;5049171;28;20011;-54
2023/06/15 04:23:05;;;;;;;;;;;25.00;39.10;;;;;;5049357;28;19916;-55
2023/06/15 04:25:35;;;;;;;;;;;25.00;39.10;;;;;;5049019;28;19913;-55
2023/06/15 04:28:02;;;;;;;;;;;25.00;39.20;;;;;;5050163;28;19913;-54
2023/06/15 04:30:28;;;;;;;;;;;24.90;39.00;;;;;;5050713;28;19920;-54
2023/06/15 04:32:57;;;;;;;;;;;25.00;39.10;;;;;;5050398;28;21692;-55
2023/06/15 04:35:24;;;;;;;;;;;24.90;39.10;;;;;;5062338;28;19963;-54
2023/06/15 04:37:50;;;;;;;;;;;25.00;39.10;;;;;;5083602;28;19913;-55
2023/06/15 04:40:20;;;;;;;;;;;25.00;39.00;;;;;;5061737;28;19913;-55
2023/06/15 04:42:45;;;;;;;;;;;24.90;38.90;;;;;;5051044;28;19920;-54
2023/06/15 04:45:11;;;;;;;;;;;24.90;39.00;;;;;;5050106;28;19921;-55
2023/06/15 04:47:36;;;;;;;;;;;25.00;38.90;;;;;;5050551;28;19912;-55
2023/06/15 04:50:03;;;;;;;;;;;25.00;38.90;;;;;;5050559;28;20304;-55
2023/06/15 04:52:28;;;;;;;;;;;25.00;39.00;;;;;;5049553;28;20436;-55
2023/06/15 04:54:54;;;;;;;;;;;25.00;38.90;;;;;;5050506;28;19928;-55
2023/06/15 04:57:19;;;;;;;;;;;24.90;38.80;;;;;;5051116;28;19994;-55
2023/06/15 04:59:45;;;;;;;;;;;24.90;38.90;;;;;;5050602;28;20441;-54
2023/06/15 05:02:10;;;;;;;;;;;24.80;38.80;;;;;;5050333;28;19916;-54
2023/06/15 05:04:36;;;;;;;;;;;24.80;39.00;;;;;;5050876;28;19927;-54
2023/06/15 05:07:01;;;;;;;;;;;24.80;38.80;;;;;;5050591;28;19913;-54
2023/06/15 05:09:27;;;;;;;;;;;24.80;38.80;;;;;;5049177;28;20331;-54
2023/06/15 05:11:53;;;;;;;;;;;24.90;38.80;;;;;;5052349;28;19928;-54
2023/06/15 05:14:18;;;;;;;;;;;24.90;38.80;;;;;;5049528;28;20471;-54
2023/06/15 05:16:44;;;;;;;;;;;24.90;38.70;;;;;;5056793;28;19939;-54
2023/06/15 05:19:09;;;;;;;;;;;24.90;38.60;;;;;;5071852;28;19912;-54
2023/06/15 05:21:35;;;;;;;;;;;24.90;38.60;;;;;;5052586;28;19921;-54
2023/06/15 05:24:00;;;;;;;;;;;24.90;38.50;;;;;;5064894;28;19908;-54
2023/06/15 05:26:26;;;;;;;;;;;24.90;38.50;;;;;;5072211;28;19908;-54
2023/06/15 05:28:51;;;;;;;;;;;24.90;38.50;;;;;;5067558;28;19995;-55
2023/06/15 05:31:17;;;;;;;;;;;24.90;38.30;;;;;;5058231;28;19995;-54
2023/06/15 05:33:42;;;;;;;;;;;24.90;38.30;;;;;;5072084;28;19991;-54
2023/06/15 05:36:07;;;;;;;;;;;24.90;38.20;;;;;;5070096;28;19923;-54
2023/06/15 05:38:33;;;;;;;;;;;24.90;38.30;;;;;;5065413;28;19942;-53
2023/06/15 05:40:58;;;;;;;;;;;24.90;38.30;;;;;;5049791;28;19913;-54
2023/06/15 05:43:24;;;;;;;;;;;24.90;38.20;;;;;;5065557;28;20022;-54
2023/06/15 05:45:49;;;;;;;;;;;24.90;38.20;;;;;;5065130;28;19916;-54
2023/06/15 05:48:15;;;;;;;;;;;24.90;38.30;;;;;;5071835;28;19919;-53
2023/06/15 05:50:40;;;;;;;;;;;24.90;38.30;;;;;;5071589;28;19915;-53
2023/06/15 05:53:06;;;;;;;;;;;24.90;38.20;;;;;;5056180;28;19962;-54
2023/06/15 05:55:31;;;;;;;;;;;24.90;38.10;;;;;;5053147;28;19923;-54
2023/06/15 05:57:57;;;;;;;;;;;24.90;38.10;;;;;;5049641;28;19967;-54
2023/06/15 06:00:25;;;;;;;;;;;24.90;38.10;;;;;;5050447;28;19920;-54
2023/06/15 06:02:51;;;;;;;;;;;24.90;38.00;;;;;;5054308;28;19912;-54
2023/06/15 06:05:16;;;;;;;;;;;24.90;38.00;;;;;;5058310;28;19916;-54
2023/06/15 06:07:45;;;;;;;;;;;24.90;38.20;;;;;;5059726;28;19913;-54
2023/06/15 06:10:10;;;;;;;;;;;24.90;38.10;;;;;;5100177;28;19913;-54
2023/06/15 06:12:36;;;;;;;;;;;24.90;38.10;;;;;;5072450;28;20385;-54
2023/06/15 06:15:01;;;;;;;;;;;24.90;38.10;;;;;;5051997;28;19920;-54
2023/06/15 06:17:27;;;;;;;;;;;24.90;38.20;;;;;;5066503;28;19913;-54
2023/06/15 06:19:52;;;;;;;;;;;24.90;38.20;;;;;;5051699;28;19920;-54
2023/06/15 06:22:18;;;;;;;;;;;24.90;38.20;;;;;;5065846;28;19916;-54
2023/06/15 06:24:44;;;;;;;;;;;24.90;38.20;;;;;;5063079;28;20327;-54
2023/06/15 06:27:09;;;;;;;;;;;24.90;38.20;;;;;;5074467;28;20250;-54
2023/06/15 06:29:35;;;;;;;;;;;24.80;38.20;;;;;;5075168;28;19923;-54
2023/06/15 06:32:00;;;;;;;;;;;24.80;38.30;;;;;;5098733;28;19999;-54
2023/06/15 06:34:25;;;;;;;;;;;24.80;38.20;;;;;;5063522;28;19921;-55
2023/06/15 06:36:51;;;;;;;;;;;24.80;38.20;;;;;;5056938;28;20435;-55
2023/06/15 06:39:17;;;;;;;;;;;24.80;38.20;;;;;;5057975;28;19968;-54
2023/06/15 06:41:43;;;;;;;;;;;24.90;38.50;;;;;;5062659;28;19936;-54
2023/06/15 06:44:08;;;;;;;;;;;24.90;38.50;;;;;;5072409;28;20444;-54
2023/06/15 06:46:34;;;;;;;;;;;24.90;38.50;;;;;;5057975;28;19971;-54
2023/06/15 06:49:00;;;;;;;;;;;24.90;38.80;;;;;;5068835;28;19909;-54
2023/06/15 06:51:25;;;;;;;;;;;24.90;38.70;;;;;;5095427;28;19912;-54
2023/06/15 06:53:51;;;;;;;;;;;24.90;38.80;;;;;;5060318;28;19964;-54
2023/06/15 06:56:16;;;;;;;;;;;24.90;38.70;;;;;;5057924;28;20280;-54
2023/06/15 06:58:41;;;;;;;;;;;25.00;38.70;;;;;;5063253;28;19917;-54
2023/06/15 07:01:07;;;;;;;;;;;25.00;38.70;;;;;;5060303;28;19952;-53
2023/06/15 07:03:32;;;;;;;;;;;25.00;38.70;;;;;;5064430;28;19915;-53
2023/06/15 07:05:58;;;;;;;;;;;25.10;38.60;;;;;;5054448;28;19917;-55
2023/06/15 07:08:23;;;;;;;;;;;25.10;38.60;;;;;;5061206;28;19920;-55
2023/06/15 07:10:49;;;;;;;;;;;25.10;38.40;;;;;;5058822;28;19909;-54
2023/06/15 07:13:15;;;;;;;;;;;25.20;38.50;;;;;;5061911;28;19917;-55
2023/06/15 07:15:40;;;;;;;;;;;25.20;38.70;;;;;;5065384;28;19920;-54
2023/06/15 07:18:05;;;;;;;;;;;25.20;38.50;;;;;;5067459;28;20380;-54
2023/06/15 07:20:31;;;;;;;;;;;25.20;38.60;;;;;;5060106;28;20326;-54
2023/06/15 07:22:56;;;;;;;;;;;25.20;38.30;;;;;;5054327;28;20339;-54
2023/06/15 07:25:22;;;;;;;;;;;25.20;38.40;;;;;;5056694;28;20305;-54
2023/06/15 07:27:48;;;;;;;;;;;25.30;38.50;;;;;;5070536;28;19915;-54
2023/06/15 07:30:13;;;;;;;;;;;25.20;38.30;;;;;;5071949;28;19920;-54
2023/06/15 07:32:39;;;;;;;;;;;25.20;38.10;;;;;;5069145;28;19917;-54
2023/06/15 07:35:04;;;;;;;;;;;25.20;38.30;;;;;;5071832;28;19946;-54
2023/06/15 07:37:30;;;;;;;;;;;25.20;38.20;;;;;;5066480;28;19992;-54
2023/06/15 07:39:55;;;;;;;;;;;25.20;38.00;;;;;;5058926;28;20038;-54
2023/06/15 07:42:21;;;;;;;;;;;25.20;37.90;;;;;;5066607;28;19908;-54
2023/06/15 07:44:46;;;;;;;;;;;25.30;38.00;;;;;;5061984;28;20050;-54
2023/06/15 07:47:12;;;;;;;;;;;25.30;38.00;;;;;;5060025;28;19913;-53
2023/06/15 07:49:37;;;;;;;;;;;25.30;38.10;;;;;;5071007;28;19923;-54
2023/06/15 07:52:03;;;;;;;;;;;25.30;38.00;;;;;;5059512;28;19919;-54
2023/06/15 07:54:28;;;;;;;;;;;25.30;37.80;;;;;;5069987;28;19966;-54
2023/06/15 07:56:53;;;;;;;;;;;25.40;37.90;;;;;;5070377;28;19923;-55
2023/06/15 07:59:19;;;;;;;;;;;25.30;37.80;;;;;;5057524;28;19943;-55
2023/06/15 08:01:44;;;;;;;;;;;25.40;37.90;;;;;;5062764;28;20368;-55
2023/06/15 08:04:10;;;;;;;;;;;25.40;37.80;;;;;;5064656;28;19977;-54
2023/06/15 08:06:35;;;;;;;;;;;25.40;37.80;;;;;;5058908;28;19919;-54
2023/06/15 08:09:01;;;;;;;;;;;25.40;37.80;;;;;;5064298;28;19973;-54
2023/06/15 08:11:27;;;;;;;;;;;25.40;37.80;;;;;;5066165;28;19913;-54
2023/06/15 08:13:52;;;;;;;;;;;25.40;37.80;;;;;;5090411;28;19916;-54
2023/06/15 08:16:18;;;;;;;;;;;25.40;37.80;;;;;;5071538;28;19944;-55
2023/06/15 08:18:43;;;;;;;;;;;25.40;37.80;;;;;;5070738;28;19973;-54
2023/06/15 08:21:09;;;;;;;;;;;25.40;37.60;;;;;;5067970;28;19997;-55
2023/06/15 08:23:35;;;;;;;;;;;25.40;37.70;;;;;;5061309;28;19924;-54
2023/06/15 08:26:00;;;;;;;;;;;25.40;37.70;;;;;;5063821;28;20308;-54
2023/06/15 08:28:26;;;;;;;;;;;25.40;37.50;;;;;;5063475;28;20007;-54
2023/06/15 08:30:52;;;;;;;;;;;25.40;37.60;;;;;;5061646;28;20681;-54
2023/06/15 08:33:18;;;;;;;;;;;25.40;38.20;;;;;;5072618;28;20015;-54
2023/06/15 08:35:44;;;;;;;;;;;25.40;37.50;;;;;;5058806;28;19921;-54
2023/06/15 08:38:09;;;;;;;;;;;25.40;37.10;;;;;;5063662;28;19923;-54
2023/06/15 08:40:35;;;;;;;;;;;25.40;37.00;;;;;;5059811;28;19917;-55
2023/06/15 08:43:00;;;;;;;;;;;25.40;37.10;;;;;;5062753;28;19912;-55
2023/06/15 08:45:26;;;;;;;;;;;25.40;36.90;;;;;;5092308;27;19924;-55
2023/06/15 08:47:52;;;;;;;;;;;25.40;36.80;;;;;;5056506;28;19934;-55
2023/06/15 08:50:17;;;;;;;;;;;25.40;36.70;;;;;;5054429;28;20007;-54
2023/06/15 08:52:43;;;;;;;;;;;25.40;36.80;;;;;;5054788;28;19921;-55
2023/06/15 08:55:09;;;;;;;;;;;25.40;37.30;;;;;;5093062;28;19920;-54
2023/06/15 08:57:35;;;;;;;;;;;25.50;36.80;;;;;;5092611;28;19916;-54
2023/06/15 09:00:09;;;;;;;;;;;25.50;36.80;;;;;;5062170;28;19962;-55
2023/06/15 09:02:39;;;;;;;;;;;25.50;36.50;;;;;;5089098;28;20398;-55
2023/06/15 09:05:06;;;;;;;;;;;25.50;36.40;;;;;;5060901;28;19943;-54
2023/06/15 09:07:32;;;;;;;;;;;25.50;36.40;;;;;;5053628;28;19966;-55
2023/06/15 09:10:10;;;;;;;;;;;25.50;36.20;;;;;;5064916;28;19913;-55
2023/06/15 09:12:40;;;;;;;;;;;25.50;36.20;;;;;;5063383;28;19917;-54
2023/06/15 09:15:07;;;;;;;;;;;25.50;35.90;;;;;;5059321;28;19924;-54
2023/06/15 09:17:35;;;;;;;;;;;25.50;35.70;;;;;;5057124;28;19913;-54
2023/06/15 09:20:01;;;;;;;;;;;25.40;35.70;;;;;;5069386;28;20300;-55
2023/06/15 09:22:26;;;;;;;;;;;25.50;35.70;;;;;;5063925;28;19916;-55
2023/06/15 09:24:51;;;;;;;;;;;25.50;35.30;;;;;;5064556;28;19912;-54
2023/06/15 09:27:17;;;;;;;;;;;25.50;35.30;;;;;;5057039;28;19924;-55
2023/06/15 09:30:02;;;;;;;;;;;25.50;35.00;;;;;;5067912;28;20037;-54
2023/06/15 09:32:28;;;;;;;;;;;25.40;35.30;;;;;;5062712;28;19917;-54
2023/06/15 09:34:58;;;;;;;;;;;25.40;34.80;;;;;;5062972;28;19927;-54
2023/06/15 09:37:24;;;;;;;;;;;25.40;35.20;;;;;;5065991;28;19916;-54
2023/06/15 09:39:50;;;;;;;;;;;25.50;35.40;;;;;;5087039;27;19916;-54
2023/06/15 09:42:16;;;;;;;;;;;25.60;35.30;;;;;;5052212;28;19912;-54
2023/06/15 09:44:42;;;;;;;;;;;25.50;35.40;;;;;;5075877;28;20496;-54
2023/06/15 09:47:13;;;;;;;;;;;25.60;35.50;;;;;;5071420;28;19917;-54
2023/06/15 09:49:38;;;;;;;;;;;25.60;35.60;;;;;;5097711;28;19995;-55
2023/06/15 09:52:04;;;;;;;;;;;25.50;35.40;;;;;;5103545;28;19954;-55
2023/06/15 09:54:31;;;;;;;;;;;25.60;35.40;;;;;;5061481;28;20298;-53
2023/06/15 09:56:57;;;;;;;;;;;25.50;35.40;;;;;;5058486;28;19924;-54
2023/06/15 09:59:23;;;;;;;;;;;25.60;35.40;;;;;;5061746;28;19924;-54
2023/06/15 10:01:49;;;;;;;;;;;25.60;36.00;;;;;;5063373;28;19917;-55
2023/06/15 10:04:14;;;;;;;;;;;25.60;36.10;;;;;;5069526;28;19916;-55
2023/06/15 10:06:40;;;;;;;;;;;25.60;36.10;;;;;;5057746;28;19916;-55
2023/06/15 10:09:06;;;;;;;;;;;25.70;35.80;;;;;;5069997;28;19944;-55
2023/06/15 10:11:32;;;;;;;;;;;25.70;36.10;;;;;;5065725;28;19958;-55
2023/06/15 10:14:00;;;;;;;;;;;25.80;36.20;;;;;;5098629;27;19916;-54
2023/06/15 10:16:26;;;;;;;;;;;25.90;36.00;;;;;;5060565;28;20360;-54
2023/06/15 10:18:53;;;;;;;;;;;25.90;36.00;;;;;;5098599;27;19917;-54
2023/06/15 10:21:19;;;;;;;;;;;26.00;36.10;;;;;;5069162;28;19923;-55
2023/06/15 10:23:45;;;;;;;;;;;26.00;36.00;;;;;;5069486;28;20335;-55
2023/06/15 10:26:11;;;;;;;;;;;26.10;35.70;;;;;;5109363;27;19917;-54
2023/06/15 10:28:39;;;;;;;;;;;26.00;35.80;;;;;;5064810;28;19936;-56
2023/06/15 10:31:07;;;;;;;;;;;26.10;35.80;;;;;;5093414;27;19927;-54
2023/06/15 10:33:47;;;;;;;;;;;26.00;35.40;;;;;;5065285;28;19948;-55
2023/06/15 10:36:20;;;;;;;;;;;26.00;34.70;;;;;;5071792;28;20329;-55
2023/06/15 10:38:58;;;;;;;;;;;25.90;35.30;;;;;;5066528;28;19912;-55
2023/06/15 10:41:23;;;;;;;;;;;25.80;35.40;;;;;;5059332;28;20032;-55
2023/06/15 10:44:02;;;;;;;;;;;25.80;34.70;;;;;;5068333;28;19983;-55
2023/06/15 10:46:28;;;;;;;;;;;25.80;34.30;;;;;;5072247;28;19917;-55
2023/06/15 10:48:54;;;;;;;;;;;25.80;34.30;;;;;;5077045;28;20300;-54
2023/06/15 10:51:21;;;;;;;;;;;25.80;34.30;;;;;;5068477;28;19916;-54
2023/06/15 10:53:47;;;;;;;;;;;25.80;34.20;;;;;;5070235;28;19913;-54
2023/06/15 10:56:16;;;;;;;;;;;25.80;34.30;;;;;;5068280;28;20033;-54
2023/06/15 10:58:54;;;;;;;;;;;25.80;34.20;;;;;;5073569;28;19970;-55
2023/06/15 11:01:27;;;;;;;;;;;25.80;34.30;;;;;;5076872;28;19966;-56
2023/06/15 11:03:53;;;;;;;;;;;25.80;34.30;;;;;;5102022;27;19912;-55
2023/06/15 11:06:21;;;;;;;;;;;25.90;34.50;;;;;;5063781;28;20007;-54
2023/06/15 11:08:53;;;;;;;;;;;25.80;34.00;;;;;;5065874;28;19913;-55
2023/06/15 11:11:26;;;;;;;;;;;25.80;33.70;;;;;;5062871;28;19959;-54
2023/06/15 11:14:00;;;;;;;;;;;25.80;33.50;;;;;;5067164;28;19956;-54
2023/06/15 11:16:27;;;;;;;;;;;25.80;33.80;;;;;;5061768;28;19979;-54
2023/06/15 11:18:59;;;;;;;;;;;25.80;33.70;;;;;;5061691;28;19920;-55
2023/06/15 11:21:28;;;;;;;;;;;25.80;33.70;;;;;;5105141;28;19995;-54
2023/06/15 11:23:57;;;;;;;;;;;25.80;33.80;;;;;;5057869;28;19917;-55
2023/06/15 11:26:27;;;;;;;;;;;25.80;33.90;;;;;;5064724;28;19947;-55
2023/06/15 11:28:57;;;;;;;;;;;25.80;33.80;;;;;;5071971;28;20402;-54
2023/06/15 11:31:22;;;;;;;;;;;25.80;34.10;;;;;;5073587;28;19915;-54
2023/06/15 11:33:49;;;;;;;;;;;25.80;34.00;;;;;;5075885;28;19912;-54
2023/06/15 11:36:14;;;;;;;;;;;25.90;34.50;;;;;;5064247;28;19917;-54
2023/06/15 11:38:40;;;;;;;;;;;25.90;34.50;;;;;;5061139;28;20749;-54
2023/06/15 11:41:06;;;;;;;;;;;25.90;34.80;;;;;;5053584;28;20576;-54
2023/06/15 11:43:34;;;;;;;;;;;26.00;34.90;;;;;;5059025;28;19945;-54
2023/06/15 11:45:59;;;;;;;;;;;25.90;34.90;;;;;;5063441;28;19955;-55
2023/06/15 11:48:25;;;;;;;;;;;25.90;35.00;;;;;;5066833;28;19921;-55
2023/06/15 11:50:51;;;;;;;;;;;26.00;35.30;;;;;;5059855;28;19947;-55
2023/06/15 11:53:16;;;;;;;;;;;26.00;35.70;;;;;;5064310;28;19932;-56
2023/06/15 11:55:45;;;;;;;;;;;26.10;35.80;;;;;;5073313;28;20003;-55
2023/06/15 11:58:11;;;;;;;;;;;26.10;35.90;;;;;;5067815;28;19931;-55
2023/06/15 12:00:36;;;;;;;;;;;26.20;36.20;;;;;;5052975;28;19913;-55
2023/06/15 12:03:11;;;;;;;;;;;26.10;36.40;;;;;;5056793;28;19917;-56
2023/06/15 12:05:36;;;;;;;;;;;26.10;36.20;;;;;;5061756;28;19925;-56
2023/06/15 12:08:02;;;;;;;;;;;26.10;36.60;;;;;;5062904;28;19945;-55
2023/06/15 12:10:28;;;;;;;;;;;26.20;36.70;;;;;;5094075;28;19909;-56
2023/06/15 12:12:53;;;;;;;;;;;26.30;36.80;;;;;;5057051;28;19964;-55
2023/06/15 12:15:20;;;;;;;;;;;26.30;36.90;;;;;;5059872;28;19947;-55
2023/06/15 12:17:46;;;;;;;;;;;26.30;36.90;;;;;;5068425;28;19912;-56
2023/06/15 12:20:13;;;;;;;;;;;26.40;37.10;;;;;;5070437;28;19913;-55
2023/06/15 12:22:45;;;;;;;;;;;26.40;36.90;;;;;;5060553;28;19916;-55
2023/06/15 12:25:11;;;;;;;;;;;26.50;37.10;;;;;;5098165;27;19921;-55
2023/06/15 12:27:46;;;;;;;;;;;26.40;37.10;;;;;;5065032;28;19919;-55
2023/06/15 12:30:12;;;;;;;;;;;26.40;37.00;;;;;;5063226;28;19923;-55
2023/06/15 12:32:42;;;;;;;;;;;26.30;37.20;;;;;;5066572;28;20309;-56
2023/06/15 12:35:23;;;;;;;;;;;26.30;37.20;;;;;;5063436;28;19938;-55
2023/06/15 12:37:48;;;;;;;;;;;26.30;37.50;;;;;;5070193;28;19913;-54
2023/06/15 12:40:14;;;;;;;;;;;26.40;37.60;;;;;;5094285;27;19919;-55
2023/06/15 12:42:40;;;;;;;;;;;26.40;37.40;;;;;;5062642;28;20211;-55
2023/06/15 12:45:06;;;;;;;;;;;26.50;37.50;;;;;;5066813;28;19924;-54
2023/06/15 12:47:31;;;;;;;;;;;26.50;37.10;;;;;;5060278;28;20003;-55
2023/06/15 12:49:59;;;;;;;;;;;26.60;37.40;;;;;;5053954;28;20003;-55
2023/06/15 12:52:25;;;;;;;;;;;26.50;37.00;;;;;;5063406;28;19928;-55
2023/06/15 12:54:50;;;;;;;;;;;26.60;36.90;;;;;;5069218;28;20300;-55
2023/06/15 12:57:16;;;;;;;;;;;26.60;37.00;;;;;;5068419;28;19958;-55
2023/06/15 12:59:41;;;;;;;;;;;26.60;36.60;;;;;;5063732;28;19916;-55
2023/06/15 13:02:07;;;;;;;;;;;26.60;36.80;;;;;;5070269;28;20372;-55
2023/06/15 13:04:33;;;;;;;;;;;26.60;36.20;;;;;;5065066;28;20258;-55
2023/06/15 13:06:58;;;;;;;;;;;26.50;35.80;;;;;;5067559;28;19917;-55
2023/06/15 13:09:24;;;;;;;;;;;26.50;35.70;;;;;;5060262;28;19927;-56
2023/06/15 13:11:49;;;;;;;;;;;26.60;36.00;;;;;;5068691;28;19983;-55
2023/06/15 13:14:15;;;;;;;;;;;26.50;35.30;;;;;;5063896;28;19946;-55
2023/06/15 13:16:40;;;;;;;;;;;26.40;35.50;;;;;;5064099;28;19916;-55
2023/06/15 13:19:07;;;;;;;;;;;26.50;34.80;;;;;;5070387;28;19917;-55
2023/06/15 13:21:32;;;;;;;;;;;26.40;35.20;;;;;;5071716;28;19960;-55
2023/06/15 13:23:58;;;;;;;;;;;26.50;35.10;;;;;;5064240;28;20292;-56
2023/06/15 13:26:23;;;;;;;;;;;26.40;34.60;;;;;;5064346;28;20630;-55
2023/06/15 13:28:49;;;;;;;;;;;26.40;35.40;;;;;;5058807;28;20351;-55
2023/06/15 13:31:15;;;;;;;;;;;26.30;34.90;;;;;;5058190;28;19948;-54
2023/06/15 13:33:40;;;;;;;;;;;26.40;35.30;;;;;;5068102;28;19934;-55
2023/06/15 13:36:06;;;;;;;;;;;26.30;35.00;;;;;;5069155;28;19955;-55
2023/06/15 13:38:31;;;;;;;;;;;26.40;35.40;;;;;;5092070;28;20012;-55
2023/06/15 13:40:57;;;;;;;;;;;26.30;35.40;;;;;;5058143;28;20490;-55
2023/06/15 13:43:23;;;;;;;;;;;26.30;35.20;;;;;;5055733;28;19924;-55
2023/06/15 13:45:48;;;;;;;;;;;26.30;35.40;;;;;;5070181;28;19919;-55
2023/06/15 13:48:14;;;;;;;;;;;26.30;35.30;;;;;;5060263;28;19916;-56
2023/06/15 13:50:39;;;;;;;;;;;26.40;35.40;;;;;;5062324;28;21388;-55
2023/06/15 13:53:05;;;;;;;;;;;26.50;35.60;;;;;;5069706;28;20015;-55
2023/06/15 13:55:30;;;;;;;;;;;26.60;35.60;;;;;;5108067;27;19932;-55
2023/06/15 13:57:56;;;;;;;;;;;26.60;35.50;;;;;;5065468;28;19923;-55
2023/06/15 14:00:21;;;;;;;;;;;26.60;35.40;;;;;;5056755;28;19916;-55
2023/06/15 14:02:47;;;;;;;;;;;26.70;35.50;;;;;;5066857;28;19913;-55
2023/06/15 14:05:13;;;;;;;;;;;26.70;35.70;;;;;;5066939;28;19977;-55
2023/06/15 14:07:38;;;;;;;;;;;26.70;35.80;;;;;;5056750;28;19912;-56
2023/06/15 14:10:04;;;;;;;;;;;26.70;35.90;;;;;;5059619;28;20524;-54
2023/06/15 14:12:30;;;;;;;;;;;26.80;35.90;;;;;;5059924;28;20420;-55